sensor_id;sensor_type;location;lat;lon;timestamp;temperature;humidity
11617;DHT22;5864;52.998;9.068;2022-12-18T00:00:01;-6.20;99.90
11617;DHT22;5864;52.998;9.068;2022-12-18T00:02:29;-6.20;99.90
11617;DHT22;5864;52.998;9.068;2022-12-18T00:04:57;-6.20;99.90
11617;DHT22;5864;52.998;9.068;2022-12-18T00:07:24;-6.10;99.90
11617;DHT22;5864;52.998;9.068;2022-12-18T00:09:52;-6.10;99.90
11617;DHT22;5864;52.998;9.068;2022-12-18T00:12:19;-6.10;99.90
11617;DHT22;5864;52.998;9.068;2022-12-18T00:14:48;-6.10;99.90
11617;DHT22;5864;52.998;9.068;2022-12-18T00:17:16;-6.10;99.90
11617;DHT22;5864;52.998;9.068;2022-12-18T00:19:43;-4.40;99.90
11617;DHT22;5864;52.998;9.068;2022-12-18T00:22:11;-6.20;99.90
11617;DHT22;5864;52.998;9.068;2022-12-18T00:24:38;-6.20;99.90
11617;DHT22;5864;52.998;9.068;2022-12-18T00:27:05;-6.20;99.90
11617;DHT22;5864;52.998;9.068;2022-12-18T00:29:33;-6.20;99.90
11617;DHT22;5864;52.998;9.068;2022-12-18T00:32:02;-6.10;99.90
11617;DHT22;5864;52.998;9.068;2022-12-18T00:34:30;-6.20;99.90
11617;DHT22;5864;52.998;9.068;2022-12-18T00:36:57;-6.10;99.90
11617;DHT22;5864;52.998;9.068;2022-12-18T00:39:24;-6.20;99.90
11617;DHT22;5864;52.998;9.068;2022-12-18T00:41:52;-6.20;99.90
11617;DHT22;5864;52.998;9.068;2022-12-18T00:44:36;-6.20;99.90
11617;DHT22;5864;52.998;9.068;2022-12-18T00:47:05;-6.20;99.90
11617;DHT22;5864;52.998;9.068;2022-12-18T00:49:33;-6.20;99.90
11617;DHT22;5864;52.998;9.068;2022-12-18T00:52:00;-6.20;99.90
11617;DHT22;5864;52.998;9.068;2022-12-18T00:54:28;-6.20;99.90
11617;DHT22;5864;52.998;9.068;2022-12-18T00:56:55;-6.20;99.90
11617;DHT22;5864;52.998;9.068;2022-12-18T00:59:22;-6.20;99.90
11617;DHT22;5864;52.998;9.068;2022-12-18T01:01:50;-6.30;99.90
11617;DHT22;5864;52.998;9.068;2022-12-18T01:04:19;-6.40;99.90
11617;DHT22;5864;52.998;9.068;2022-12-18T01:06:47;-6.40;99.90
11617;DHT22;5864;52.998;9.068;2022-12-18T01:09:15;-6.30;99.90
11617;DHT22;5864;52.998;9.068;2022-12-18T01:11:42;-6.30;99.90
11617;DHT22;5864;52.998;9.068;2022-12-18T01:14:09;-6.30;99.90
11617;DHT22;5864;52.998;9.068;2022-12-18T01:16:40;-6.30;99.90
11617;DHT22;5864;52.998;9.068;2022-12-18T01:19:07;-6.30;99.90
11617;DHT22;5864;52.998;9.068;2022-12-18T01:21:36;-6.20;99.90
11617;DHT22;5864;52.998;9.068;2022-12-18T01:24:04;-6.20;99.90
11617;DHT22;5864;52.998;9.068;2022-12-18T01:26:32;-6.20;99.90
11617;DHT22;5864;52.998;9.068;2022-12-18T01:29:00;-6.20;99.90
11617;DHT22;5864;52.998;9.068;2022-12-18T01:31:32;-6.30;99.90
11617;DHT22;5864;52.998;9.068;2022-12-18T01:34:01;-6.30;99.90
11617;DHT22;5864;52.998;9.068;2022-12-18T01:36:31;-6.30;99.90
11617;DHT22;5864;52.998;9.068;2022-12-18T01:39:01;-6.30;99.90
11617;DHT22;5864;52.998;9.068;2022-12-18T01:41:30;-6.40;99.90
11617;DHT22;5864;52.998;9.068;2022-12-18T01:47:33;-6.40;99.90
11617;DHT22;5864;52.998;9.068;2022-12-18T01:50:06;-6.50;99.90
11617;DHT22;5864;52.998;9.068;2022-12-18T01:52:35;-6.50;99.90
11617;DHT22;5864;52.998;9.068;2022-12-18T01:55:06;-6.50;99.90
11617;DHT22;5864;52.998;9.068;2022-12-18T01:57:34;-6.50;99.90
11617;DHT22;5864;52.998;9.068;2022-12-18T02:00:07;-6.50;99.90
11617;DHT22;5864;52.998;9.068;2022-12-18T02:02:36;-6.50;99.90
11617;DHT22;5864;52.998;9.068;2022-12-18T02:05:04;-6.50;99.90
11617;DHT22;5864;52.998;9.068;2022-12-18T02:07:40;-6.50;99.90
11617;DHT22;5864;52.998;9.068;2022-12-18T02:10:17;-6.50;99.90
11617;DHT22;5864;52.998;9.068;2022-12-18T02:12:51;-6.60;99.90
11617;DHT22;5864;52.998;9.068;2022-12-18T02:15:25;-6.50;99.90
11617;DHT22;5864;52.998;9.068;2022-12-18T02:17:56;-6.50;99.90
11617;DHT22;5864;52.998;9.068;2022-12-18T02:20:32;-6.50;99.90
11617;DHT22;5864;52.998;9.068;2022-12-18T02:23:12;-6.60;99.90
11617;DHT22;5864;52.998;9.068;2022-12-18T02:26:01;-6.60;99.90
11617;DHT22;5864;52.998;9.068;2022-12-18T02:28:32;-6.70;99.90
11617;DHT22;5864;52.998;9.068;2022-12-18T02:31:03;-6.70;99.90
11617;DHT22;5864;52.998;9.068;2022-12-18T02:33:32;-6.60;99.90
11617;DHT22;5864;52.998;9.068;2022-12-18T02:36:01;-6.50;99.90
11617;DHT22;5864;52.998;9.068;2022-12-18T02:38:30;-6.60;99.90
11617;DHT22;5864;52.998;9.068;2022-12-18T02:40:59;-6.60;99.90
11617;DHT22;5864;52.998;9.068;2022-12-18T02:43:27;-6.60;99.90
11617;DHT22;5864;52.998;9.068;2022-12-18T02:45:58;-6.80;99.90
11617;DHT22;5864;52.998;9.068;2022-12-18T02:48:30;-6.80;99.90
11617;DHT22;5864;52.998;9.068;2022-12-18T02:51:04;-6.80;99.90
11617;DHT22;5864;52.998;9.068;2022-12-18T02:53:38;-6.80;99.90
11617;DHT22;5864;52.998;9.068;2022-12-18T02:56:16;-6.90;99.90
11617;DHT22;5864;52.998;9.068;2022-12-18T02:58:55;-7.00;99.90
11617;DHT22;5864;52.998;9.068;2022-12-18T03:01:28;-6.90;99.90
11617;DHT22;5864;52.998;9.068;2022-12-18T03:04:01;-6.90;99.90
11617;DHT22;5864;52.998;9.068;2022-12-18T03:06:32;-7.00;99.90
11617;DHT22;5864;52.998;9.068;2022-12-18T03:09:04;-7.00;99.90
11617;DHT22;5864;52.998;9.068;2022-12-18T03:11:38;-7.00;99.90
11617;DHT22;5864;52.998;9.068;2022-12-18T03:14:26;-7.00;99.90
11617;DHT22;5864;52.998;9.068;2022-12-18T03:17:00;-6.90;99.90
11617;DHT22;5864;52.998;9.068;2022-12-18T03:19:32;-6.80;99.90
11617;DHT22;5864;52.998;9.068;2022-12-18T03:22:02;-6.80;99.90
11617;DHT22;5864;52.998;9.068;2022-12-18T03:24:31;-6.80;99.90
11617;DHT22;5864;52.998;9.068;2022-12-18T03:27:03;-6.70;99.90
11617;DHT22;5864;52.998;9.068;2022-12-18T03:29:35;-6.70;99.90
11617;DHT22;5864;52.998;9.068;2022-12-18T03:32:08;-6.70;99.90
11617;DHT22;5864;52.998;9.068;2022-12-18T03:34:39;-6.70;99.90
11617;DHT22;5864;52.998;9.068;2022-12-18T03:37:07;-6.80;99.90
11617;DHT22;5864;52.998;9.068;2022-12-18T03:39:36;-6.70;99.90
11617;DHT22;5864;52.998;9.068;2022-12-18T03:42:10;-6.70;99.90
11617;DHT22;5864;52.998;9.068;2022-12-18T03:44:44;-6.80;99.90
11617;DHT22;5864;52.998;9.068;2022-12-18T03:47:15;-6.90;99.90
11617;DHT22;5864;52.998;9.068;2022-12-18T03:49:48;-6.80;99.90
11617;DHT22;5864;52.998;9.068;2022-12-18T03:52:20;-6.80;99.90
11617;DHT22;5864;52.998;9.068;2022-12-18T03:54:50;-6.80;99.90
11617;DHT22;5864;52.998;9.068;2022-12-18T03:57:22;-6.80;99.90
11617;DHT22;5864;52.998;9.068;2022-12-18T03:59:56;-6.90;99.90
11617;DHT22;5864;52.998;9.068;2022-12-18T04:02:24;-7.00;99.90
11617;DHT22;5864;52.998;9.068;2022-12-18T04:04:53;-7.10;99.90
11617;DHT22;5864;52.998;9.068;2022-12-18T04:07:23;-7.10;99.90
11617;DHT22;5864;52.998;9.068;2022-12-18T04:09:54;-7.00;99.90
11617;DHT22;5864;52.998;9.068;2022-12-18T04:12:25;-6.90;99.90
11617;DHT22;5864;52.998;9.068;2022-12-18T04:14:53;-6.80;99.90
11617;DHT22;5864;52.998;9.068;2022-12-18T04:17:21;-6.80;99.90
11617;DHT22;5864;52.998;9.068;2022-12-18T04:19:48;-7.00;99.90
11617;DHT22;5864;52.998;9.068;2022-12-18T04:22:16;-7.10;99.90
11617;DHT22;5864;52.998;9.068;2022-12-18T04:24:43;-7.10;99.90
11617;DHT22;5864;52.998;9.068;2022-12-18T04:27:11;-7.00;99.90
11617;DHT22;5864;52.998;9.068;2022-12-18T04:29:40;-7.00;99.90
11617;DHT22;5864;52.998;9.068;2022-12-18T04:32:08;-7.10;99.90
11617;DHT22;5864;52.998;9.068;2022-12-18T04:34:35;-7.10;99.90
11617;DHT22;5864;52.998;9.068;2022-12-18T04:37:03;-7.10;99.90
11617;DHT22;5864;52.998;9.068;2022-12-18T04:39:30;-7.20;99.90
11617;DHT22;5864;52.998;9.068;2022-12-18T04:41:57;-7.20;99.90
11617;DHT22;5864;52.998;9.068;2022-12-18T04:44:25;-7.40;99.90
11617;DHT22;5864;52.998;9.068;2022-12-18T04:46:56;-7.30;99.90
11617;DHT22;5864;52.998;9.068;2022-12-18T04:49:24;-7.30;99.90
11617;DHT22;5864;52.998;9.068;2022-12-18T04:51:52;-7.30;99.90
11617;DHT22;5864;52.998;9.068;2022-12-18T04:54:19;-7.20;99.90
11617;DHT22;5864;52.998;9.068;2022-12-18T04:56:47;-7.20;99.90
11617;DHT22;5864;52.998;9.068;2022-12-18T04:59:14;-7.20;99.90
11617;DHT22;5864;52.998;9.068;2022-12-18T05:01:42;-7.20;99.90
11617;DHT22;5864;52.998;9.068;2022-12-18T05:04:11;-7.20;99.90
11617;DHT22;5864;52.998;9.068;2022-12-18T05:06:38;-7.20;99.90
11617;DHT22;5864;52.998;9.068;2022-12-18T05:09:05;-7.20;99.90
11617;DHT22;5864;52.998;9.068;2022-12-18T05:11:33;-7.20;99.90
11617;DHT22;5864;52.998;9.068;2022-12-18T05:14:01;-7.10;99.90
11617;DHT22;5864;52.998;9.068;2022-12-18T05:16:31;-7.00;99.90
11617;DHT22;5864;52.998;9.068;2022-12-18T05:18:59;-7.10;99.90
11617;DHT22;5864;52.998;9.068;2022-12-18T05:21:27;-7.10;99.90
11617;DHT22;5864;52.998;9.068;2022-12-18T05:23:55;-7.00;99.90
11617;DHT22;5864;52.998;9.068;2022-12-18T05:26:25;-7.00;99.90
11617;DHT22;5864;52.998;9.068;2022-12-18T05:28:56;-6.70;99.90
11617;DHT22;5864;52.998;9.068;2022-12-18T05:31:23;-7.00;99.90
11617;DHT22;5864;52.998;9.068;2022-12-18T05:33:51;-7.10;99.90
11617;DHT22;5864;52.998;9.068;2022-12-18T05:36:18;-7.00;99.90
11617;DHT22;5864;52.998;9.068;2022-12-18T05:38:47;-7.00;99.90
11617;DHT22;5864;52.998;9.068;2022-12-18T05:41:14;-7.00;99.90
11617;DHT22;5864;52.998;9.068;2022-12-18T05:43:42;-7.10;99.90
11617;DHT22;5864;52.998;9.068;2022-12-18T05:46:13;-7.10;99.90
11617;DHT22;5864;52.998;9.068;2022-12-18T05:48:40;-7.10;99.90
11617;DHT22;5864;52.998;9.068;2022-12-18T05:51:09;-7.20;99.90
11617;DHT22;5864;52.998;9.068;2022-12-18T05:53:38;-7.20;99.90
11617;DHT22;5864;52.998;9.068;2022-12-18T05:56:09;-6.30;99.90
11617;DHT22;5864;52.998;9.068;2022-12-18T05:58:37;-7.20;99.90
11617;DHT22;5864;52.998;9.068;2022-12-18T06:01:09;-7.20;99.90
11617;DHT22;5864;52.998;9.068;2022-12-18T06:03:37;-7.50;99.90
11617;DHT22;5864;52.998;9.068;2022-12-18T06:06:13;-7.20;99.90
11617;DHT22;5864;52.998;9.068;2022-12-18T06:08:41;-7.20;99.90
11617;DHT22;5864;52.998;9.068;2022-12-18T06:11:10;-7.20;99.90
11617;DHT22;5864;52.998;9.068;2022-12-18T06:13:41;-7.20;99.90
11617;DHT22;5864;52.998;9.068;2022-12-18T06:16:08;-7.20;99.90
11617;DHT22;5864;52.998;9.068;2022-12-18T06:18:36;-7.20;99.90
11617;DHT22;5864;52.998;9.068;2022-12-18T06:21:04;-7.20;99.90
11617;DHT22;5864;52.998;9.068;2022-12-18T06:23:32;-7.30;99.90
11617;DHT22;5864;52.998;9.068;2022-12-18T06:26:03;-7.20;99.90
11617;DHT22;5864;52.998;9.068;2022-12-18T06:28:32;-7.30;99.90
11617;DHT22;5864;52.998;9.068;2022-12-18T06:31:00;-7.30;99.90
11617;DHT22;5864;52.998;9.068;2022-12-18T06:33:27;-7.30;99.90
11617;DHT22;5864;52.998;9.068;2022-12-18T06:35:59;-7.30;99.90
11617;DHT22;5864;52.998;9.068;2022-12-18T06:38:27;-7.30;99.90
11617;DHT22;5864;52.998;9.068;2022-12-18T06:40:54;-7.30;99.90
11617;DHT22;5864;52.998;9.068;2022-12-18T06:43:22;-7.30;99.90
11617;DHT22;5864;52.998;9.068;2022-12-18T06:45:51;-7.20;99.90
11617;DHT22;5864;52.998;9.068;2022-12-18T06:48:19;-7.30;99.90
11617;DHT22;5864;52.998;9.068;2022-12-18T06:50:48;-7.30;99.90
11617;DHT22;5864;52.998;9.068;2022-12-18T06:53:15;-7.30;99.90
11617;DHT22;5864;52.998;9.068;2022-12-18T06:55:43;-7.30;99.90
11617;DHT22;5864;52.998;9.068;2022-12-18T06:58:10;-7.30;99.90
11617;DHT22;5864;52.998;9.068;2022-12-18T07:00:38;-7.30;99.90
11617;DHT22;5864;52.998;9.068;2022-12-18T07:03:06;-7.30;99.90
11617;DHT22;5864;52.998;9.068;2022-12-18T07:05:34;-7.30;99.90
11617;DHT22;5864;52.998;9.068;2022-12-18T07:08:06;-7.20;99.90
11617;DHT22;5864;52.998;9.068;2022-12-18T07:10:33;-7.30;99.90
11617;DHT22;5864;52.998;9.068;2022-12-18T07:13:01;-7.20;99.90
11617;DHT22;5864;52.998;9.068;2022-12-18T07:15:28;-5.30;99.90
11617;DHT22;5864;52.998;9.068;2022-12-18T07:17:56;-7.10;99.90
11617;DHT22;5864;52.998;9.068;2022-12-18T07:20:25;-7.10;99.90
11617;DHT22;5864;52.998;9.068;2022-12-18T07:22:52;-7.00;99.90
11617;DHT22;5864;52.998;9.068;2022-12-18T07:25:20;-6.90;99.90
11617;DHT22;5864;52.998;9.068;2022-12-18T07:27:47;-6.90;99.90
11617;DHT22;5864;52.998;9.068;2022-12-18T07:30:17;-7.00;99.90
11617;DHT22;5864;52.998;9.068;2022-12-18T07:32:45;-6.90;99.90
11617;DHT22;5864;52.998;9.068;2022-12-18T07:35:12;-7.00;99.90
11617;DHT22;5864;52.998;9.068;2022-12-18T07:37:41;-7.10;99.90
11617;DHT22;5864;52.998;9.068;2022-12-18T07:40:12;-7.10;99.90
11617;DHT22;5864;52.998;9.068;2022-12-18T07:42:39;-7.10;99.90
11617;DHT22;5864;52.998;9.068;2022-12-18T07:45:07;-7.10;99.90
11617;DHT22;5864;52.998;9.068;2022-12-18T07:47:35;-7.00;99.90
11617;DHT22;5864;52.998;9.068;2022-12-18T07:50:03;-7.00;99.90
11617;DHT22;5864;52.998;9.068;2022-12-18T07:52:31;-7.00;99.90
11617;DHT22;5864;52.998;9.068;2022-12-18T07:55:00;-7.00;99.90
11617;DHT22;5864;52.998;9.068;2022-12-18T07:57:27;-7.00;99.90
11617;DHT22;5864;52.998;9.068;2022-12-18T07:59:55;-7.00;99.90
11617;DHT22;5864;52.998;9.068;2022-12-18T08:02:23;-7.00;99.90
11617;DHT22;5864;52.998;9.068;2022-12-18T08:04:50;-7.00;99.90
11617;DHT22;5864;52.998;9.068;2022-12-18T08:07:18;-6.90;99.90
11617;DHT22;5864;52.998;9.068;2022-12-18T08:09:45;-6.90;99.90
11617;DHT22;5864;52.998;9.068;2022-12-18T08:12:14;-6.90;99.90
11617;DHT22;5864;52.998;9.068;2022-12-18T08:14:42;-6.80;99.90
11617;DHT22;5864;52.998;9.068;2022-12-18T08:17:09;-6.80;99.90
11617;DHT22;5864;52.998;9.068;2022-12-18T08:19:36;-6.80;99.90
11617;DHT22;5864;52.998;9.068;2022-12-18T08:22:04;-5.80;99.90
11617;DHT22;5864;52.998;9.068;2022-12-18T08:24:31;-6.60;99.90
11617;DHT22;5864;52.998;9.068;2022-12-18T08:26:59;-6.50;99.90
11617;DHT22;5864;52.998;9.068;2022-12-18T08:29:28;-6.40;99.90
11617;DHT22;5864;52.998;9.068;2022-12-18T08:31:56;-5.40;99.90
11617;DHT22;5864;52.998;9.068;2022-12-18T08:34:23;-4.20;99.90
11617;DHT22;5864;52.998;9.068;2022-12-18T08:36:51;-3.00;94.70
11617;DHT22;5864;52.998;9.068;2022-12-18T08:39:18;-2.00;34.20
11617;DHT22;5864;52.998;9.068;2022-12-18T08:41:46;-0.80;4.40
11617;DHT22;5864;52.998;9.068;2022-12-18T08:44:35;-0.10;1.00
11617;DHT22;5864;52.998;9.068;2022-12-18T08:47:04;0.10;1.00
11617;DHT22;5864;52.998;9.068;2022-12-18T08:49:32;0.60;1.00
11617;DHT22;5864;52.998;9.068;2022-12-18T08:52:00;0.70;99.90
11617;DHT22;5864;52.998;9.068;2022-12-18T08:54:29;0.00;1.00
11617;DHT22;5864;52.998;9.068;2022-12-18T08:56:56;-1.20;1.00
11617;DHT22;5864;52.998;9.068;2022-12-18T08:59:24;-1.50;1.00
11617;DHT22;5864;52.998;9.068;2022-12-18T09:01:53;-1.80;1.00
11617;DHT22;5864;52.998;9.068;2022-12-18T09:04:21;-2.00;1.00
11617;DHT22;5864;52.998;9.068;2022-12-18T09:06:54;-2.30;1.00
11617;DHT22;5864;52.998;9.068;2022-12-18T09:09:22;-2.30;24.40
11617;DHT22;5864;52.998;9.068;2022-12-18T09:11:49;-2.40;16.80
11617;DHT22;5864;52.998;9.068;2022-12-18T09:14:17;-2.60;35.70
11617;DHT22;5864;52.998;9.068;2022-12-18T09:16:44;-2.50;44.40
11617;DHT22;5864;52.998;9.068;2022-12-18T09:19:13;-2.20;34.20
11617;DHT22;5864;52.998;9.068;2022-12-18T09:21:40;-2.30;20.40
11617;DHT22;5864;52.998;9.068;2022-12-18T09:24:12;-1.80;27.80
11617;DHT22;5864;52.998;9.068;2022-12-18T09:26:40;-2.20;24.00
11617;DHT22;5864;52.998;9.068;2022-12-18T09:29:08;-2.60;30.40
11617;DHT22;5864;52.998;9.068;2022-12-18T09:31:36;-3.00;47.10
11617;DHT22;5864;52.998;9.068;2022-12-18T09:34:05;-3.30;63.20
11617;DHT22;5864;52.998;9.068;2022-12-18T09:36:37;-3.50;74.10
11617;DHT22;5864;52.998;9.068;2022-12-18T09:39:05;-3.70;92.60
11617;DHT22;5864;52.998;9.068;2022-12-18T09:41:44;-3.90;98.00
11617;DHT22;5864;52.998;9.068;2022-12-18T09:44:22;-3.60;99.90
11617;DHT22;5864;52.998;9.068;2022-12-18T09:46:57;-3.50;99.90
11617;DHT22;5864;52.998;9.068;2022-12-18T09:49:28;-3.60;93.30
11617;DHT22;5864;52.998;9.068;2022-12-18T09:52:00;-3.50;97.40
11617;DHT22;5864;52.998;9.068;2022-12-18T09:54:33;-3.30;95.30
11617;DHT22;5864;52.998;9.068;2022-12-18T09:57:02;-3.30;97.50
11617;DHT22;5864;52.998;9.068;2022-12-18T09:59:34;-3.30;83.30
11617;DHT22;5864;52.998;9.068;2022-12-18T10:02:13;-3.40;90.90
11617;DHT22;5864;52.998;9.068;2022-12-18T10:04:41;-3.50;94.10
11617;DHT22;5864;52.998;9.068;2022-12-18T10:07:15;-3.50;96.90
11617;DHT22;5864;52.998;9.068;2022-12-18T10:09:51;-3.60;99.30
11617;DHT22;5864;52.998;9.068;2022-12-18T10:12:24;-3.50;99.90
11617;DHT22;5864;52.998;9.068;2022-12-18T10:15:02;-3.60;99.90
11617;DHT22;5864;52.998;9.068;2022-12-18T10:17:37;-3.50;99.90
11617;DHT22;5864;52.998;9.068;2022-12-18T10:20:13;-3.50;99.90
11617;DHT22;5864;52.998;9.068;2022-12-18T10:22:55;-3.50;99.90
11617;DHT22;5864;52.998;9.068;2022-12-18T10:25:28;-3.70;99.90
11617;DHT22;5864;52.998;9.068;2022-12-18T10:27:58;-3.70;99.90
11617;DHT22;5864;52.998;9.068;2022-12-18T10:30:27;-3.80;99.90
11617;DHT22;5864;52.998;9.068;2022-12-18T10:33:00;-3.70;99.90
11617;DHT22;5864;52.998;9.068;2022-12-18T10:35:28;-3.60;99.90
11617;DHT22;5864;52.998;9.068;2022-12-18T10:38:06;-3.50;99.90
11617;DHT22;5864;52.998;9.068;2022-12-18T10:40:48;-3.40;99.90
11617;DHT22;5864;52.998;9.068;2022-12-18T10:43:20;-3.50;99.90
11617;DHT22;5864;52.998;9.068;2022-12-18T10:46:01;-3.50;99.90
11617;DHT22;5864;52.998;9.068;2022-12-18T10:48:30;-3.50;99.90
11617;DHT22;5864;52.998;9.068;2022-12-18T10:51:00;-3.50;99.90
11617;DHT22;5864;52.998;9.068;2022-12-18T10:53:30;-3.60;99.90
11617;DHT22;5864;52.998;9.068;2022-12-18T10:55:59;-3.50;99.90
11617;DHT22;5864;52.998;9.068;2022-12-18T10:58:28;-3.50;99.90
11617;DHT22;5864;52.998;9.068;2022-12-18T11:01:18;-3.40;99.90
11617;DHT22;5864;52.998;9.068;2022-12-18T11:03:59;-3.40;99.90
11617;DHT22;5864;52.998;9.068;2022-12-18T11:06:27;-3.50;99.90
11617;DHT22;5864;52.998;9.068;2022-12-18T11:09:01;-3.40;99.90
11617;DHT22;5864;52.998;9.068;2022-12-18T11:11:29;-3.40;99.90
11617;DHT22;5864;52.998;9.068;2022-12-18T11:14:01;-3.40;99.90
11617;DHT22;5864;52.998;9.068;2022-12-18T11:16:30;-3.40;99.90
11617;DHT22;5864;52.998;9.068;2022-12-18T11:19:17;-3.40;99.90
11617;DHT22;5864;52.998;9.068;2022-12-18T11:21:46;-3.30;99.90
11617;DHT22;5864;52.998;9.068;2022-12-18T11:24:24;-3.20;99.90
11617;DHT22;5864;52.998;9.068;2022-12-18T11:26:54;-3.20;99.90
11617;DHT22;5864;52.998;9.068;2022-12-18T11:29:27;-3.10;99.90
11617;DHT22;5864;52.998;9.068;2022-12-18T11:32:27;-3.00;99.90
11617;DHT22;5864;52.998;9.068;2022-12-18T11:35:01;-2.90;99.90
11617;DHT22;5864;52.998;9.068;2022-12-18T11:37:29;-2.80;99.90
11617;DHT22;5864;52.998;9.068;2022-12-18T11:40:03;-2.80;99.90
11617;DHT22;5864;52.998;9.068;2022-12-18T11:42:38;-2.80;99.90
11617;DHT22;5864;52.998;9.068;2022-12-18T11:45:25;-2.80;99.90
11617;DHT22;5864;52.998;9.068;2022-12-18T11:47:58;-2.70;99.90
11617;DHT22;5864;52.998;9.068;2022-12-18T11:50:33;-2.50;99.90
11617;DHT22;5864;52.998;9.068;2022-12-18T11:53:10;-2.30;99.90
11617;DHT22;5864;52.998;9.068;2022-12-18T11:59:01;-2.20;99.90
11617;DHT22;5864;52.998;9.068;2022-12-18T12:01:42;-2.20;99.90
11617;DHT22;5864;52.998;9.068;2022-12-18T12:04:35;-2.20;99.90
11617;DHT22;5864;52.998;9.068;2022-12-18T12:07:17;-2.20;99.90
11617;DHT22;5864;52.998;9.068;2022-12-18T12:09:57;-2.20;99.90
11617;DHT22;5864;52.998;9.068;2022-12-18T12:12:34;-2.10;99.90
11617;DHT22;5864;52.998;9.068;2022-12-18T12:15:23;-2.10;99.90
11617;DHT22;5864;52.998;9.068;2022-12-18T12:18:01;-2.00;99.90
11617;DHT22;5864;52.998;9.068;2022-12-18T12:20:42;-2.00;99.90
11617;DHT22;5864;52.998;9.068;2022-12-18T12:23:16;-1.90;99.90
11617;DHT22;5864;52.998;9.068;2022-12-18T12:25:49;-1.80;99.90
11617;DHT22;5864;52.998;9.068;2022-12-18T12:28:32;-1.80;99.90
11617;DHT22;5864;52.998;9.068;2022-12-18T12:31:07;-1.70;99.90
11617;DHT22;5864;52.998;9.068;2022-12-18T12:33:43;-1.70;99.90
11617;DHT22;5864;52.998;9.068;2022-12-18T12:36:21;-1.70;99.90
11617;DHT22;5864;52.998;9.068;2022-12-18T12:38:53;-1.70;99.90
11617;DHT22;5864;52.998;9.068;2022-12-18T12:41:25;-1.80;99.90
11617;DHT22;5864;52.998;9.068;2022-12-18T12:44:16;-1.80;99.90
11617;DHT22;5864;52.998;9.068;2022-12-18T12:46:45;-1.80;99.90
11617;DHT22;5864;52.998;9.068;2022-12-18T12:49:17;-1.80;99.90
11617;DHT22;5864;52.998;9.068;2022-12-18T12:51:49;-1.80;99.90
11617;DHT22;5864;52.998;9.068;2022-12-18T12:54:24;-1.80;99.90
11617;DHT22;5864;52.998;9.068;2022-12-18T12:56:59;-1.80;99.90
11617;DHT22;5864;52.998;9.068;2022-12-18T12:59:37;-1.80;99.90
11617;DHT22;5864;52.998;9.068;2022-12-18T13:02:16;-1.80;99.90
11617;DHT22;5864;52.998;9.068;2022-12-18T13:04:52;-1.80;99.90
11617;DHT22;5864;52.998;9.068;2022-12-18T13:07:27;-1.70;99.90
11617;DHT22;5864;52.998;9.068;2022-12-18T13:10:24;-1.80;99.90
11617;DHT22;5864;52.998;9.068;2022-12-18T13:12:54;-1.80;99.90
11617;DHT22;5864;52.998;9.068;2022-12-18T13:15:33;-1.80;99.90
11617;DHT22;5864;52.998;9.068;2022-12-18T13:18:13;-1.80;99.90
11617;DHT22;5864;52.998;9.068;2022-12-18T13:20:43;-1.90;99.90
11617;DHT22;5864;52.998;9.068;2022-12-18T13:23:35;-1.80;99.90
11617;DHT22;5864;52.998;9.068;2022-12-18T13:26:31;-1.90;99.90
11617;DHT22;5864;52.998;9.068;2022-12-18T13:28:59;-1.90;99.90
11617;DHT22;5864;52.998;9.068;2022-12-18T13:34:33;-1.90;99.90
11617;DHT22;5864;52.998;9.068;2022-12-18T13:43:33;-2.00;99.90
11617;DHT22;5864;52.998;9.068;2022-12-18T13:46:24;-2.00;99.90
11617;DHT22;5864;52.998;9.068;2022-12-18T13:48:55;-2.00;99.90
11617;DHT22;5864;52.998;9.068;2022-12-18T13:51:28;-2.00;99.90
11617;DHT22;5864;52.998;9.068;2022-12-18T13:53:59;-2.00;99.90
11617;DHT22;5864;52.998;9.068;2022-12-18T13:56:28;-2.00;99.90
11617;DHT22;5864;52.998;9.068;2022-12-18T13:59:15;-2.00;99.90
11617;DHT22;5864;52.998;9.068;2022-12-18T14:01:47;-2.00;99.90
11617;DHT22;5864;52.998;9.068;2022-12-18T14:04:21;-2.00;99.90
11617;DHT22;5864;52.998;9.068;2022-12-18T14:06:53;-2.00;99.90
11617;DHT22;5864;52.998;9.068;2022-12-18T14:09:25;-2.10;99.90
11617;DHT22;5864;52.998;9.068;2022-12-18T14:11:54;-2.10;99.90
11617;DHT22;5864;52.998;9.068;2022-12-18T14:14:46;-2.10;99.90
11617;DHT22;5864;52.998;9.068;2022-12-18T14:17:15;-2.10;99.90
11617;DHT22;5864;52.998;9.068;2022-12-18T14:19:44;-2.10;99.90
11617;DHT22;5864;52.998;9.068;2022-12-18T14:22:17;-2.00;99.90
11617;DHT22;5864;52.998;9.068;2022-12-18T14:24:47;-2.10;99.90
11617;DHT22;5864;52.998;9.068;2022-12-18T14:27:31;-2.00;99.90
11617;DHT22;5864;52.998;9.068;2022-12-18T14:29:59;-2.10;99.90
11617;DHT22;5864;52.998;9.068;2022-12-18T14:32:26;-2.00;99.90
11617;DHT22;5864;52.998;9.068;2022-12-18T14:34:54;-2.10;99.90
11617;DHT22;5864;52.998;9.068;2022-12-18T14:37:24;-2.10;99.90
11617;DHT22;5864;52.998;9.068;2022-12-18T14:39:57;-2.10;99.90
11617;DHT22;5864;52.998;9.068;2022-12-18T14:42:25;-2.00;98.40
11617;DHT22;5864;52.998;9.068;2022-12-18T14:47:59;-2.00;96.50
11617;DHT22;5864;52.998;9.068;2022-12-18T14:50:27;-2.00;99.50
11617;DHT22;5864;52.998;9.068;2022-12-18T14:52:56;-2.00;99.90
11617;DHT22;5864;52.998;9.068;2022-12-18T14:55:23;-2.00;96.70
11617;DHT22;5864;52.998;9.068;2022-12-18T14:57:53;-2.00;92.00
11617;DHT22;5864;52.998;9.068;2022-12-18T15:00:23;-2.10;91.30
11617;DHT22;5864;52.998;9.068;2022-12-18T15:02:53;-2.00;90.40
11617;DHT22;5864;52.998;9.068;2022-12-18T15:05:26;-2.00;82.50
11617;DHT22;5864;52.998;9.068;2022-12-18T15:07:57;-2.10;82.70
11617;DHT22;5864;52.998;9.068;2022-12-18T15:10:27;-2.10;82.80
11617;DHT22;5864;52.998;9.068;2022-12-18T15:13:09;-2.10;80.00
11617;DHT22;5864;52.998;9.068;2022-12-18T15:15:53;-2.10;74.30
11617;DHT22;5864;52.998;9.068;2022-12-18T15:18:27;-1.90;71.50
11617;DHT22;5864;52.998;9.068;2022-12-18T15:20:58;-2.20;75.20
11617;DHT22;5864;52.998;9.068;2022-12-18T15:23:30;-2.20;74.50
11617;DHT22;5864;52.998;9.068;2022-12-18T15:26:01;-2.20;75.20
11617;DHT22;5864;52.998;9.068;2022-12-18T15:28:32;-2.20;74.40
11617;DHT22;5864;52.998;9.068;2022-12-18T15:31:05;-2.20;65.90
11617;DHT22;5864;52.998;9.068;2022-12-18T15:33:34;-2.30;63.20
11617;DHT22;5864;52.998;9.068;2022-12-18T15:36:04;-2.30;64.60
11617;DHT22;5864;52.998;9.068;2022-12-18T15:38:33;-2.30;70.50
11617;DHT22;5864;52.998;9.068;2022-12-18T15:41:00;-2.30;63.00
11617;DHT22;5864;52.998;9.068;2022-12-18T15:43:28;-2.30;58.40
11617;DHT22;5864;52.998;9.068;2022-12-18T15:46:02;-2.30;58.40
11617;DHT22;5864;52.998;9.068;2022-12-18T15:48:32;-2.30;48.20
11617;DHT22;5864;52.998;9.068;2022-12-18T15:51:01;-2.20;42.80
11617;DHT22;5864;52.998;9.068;2022-12-18T15:53:31;-2.20;44.20
11617;DHT22;5864;52.998;9.068;2022-12-18T15:56:00;-2.20;35.60
11617;DHT22;5864;52.998;9.068;2022-12-18T15:58:45;-2.10;32.70
11617;DHT22;5864;52.998;9.068;2022-12-18T16:01:13;-2.10;30.00
11617;DHT22;5864;52.998;9.068;2022-12-18T16:03:41;-2.10;19.90
11617;DHT22;5864;52.998;9.068;2022-12-18T16:06:09;-2.00;12.40
11617;DHT22;5864;52.998;9.068;2022-12-18T16:08:37;-2.00;6.60
11617;DHT22;5864;52.998;9.068;2022-12-18T16:11:19;-2.00;10.10
11617;DHT22;5864;52.998;9.068;2022-12-18T16:14:05;-2.00;5.50
11617;DHT22;5864;52.998;9.068;2022-12-18T16:16:32;-2.00;11.40
11617;DHT22;5864;52.998;9.068;2022-12-18T16:19:00;-2.00;14.70
11617;DHT22;5864;52.998;9.068;2022-12-18T16:21:28;-2.00;13.80
11617;DHT22;5864;52.998;9.068;2022-12-18T16:23:55;-2.00;20.00
11617;DHT22;5864;52.998;9.068;2022-12-18T16:26:25;-2.00;11.90
11617;DHT22;5864;52.998;9.068;2022-12-18T16:28:52;-2.00;16.70
11617;DHT22;5864;52.998;9.068;2022-12-18T16:31:20;-2.00;11.80